Time;durP1;ratioP1;P1;durP2;ratioP2;P2;SDS_P1;SDS_P2;PMS_P1;PMS_P2;Temp;Humidity;BMP_temperature;BMP_pressure;BME280_temperature;BME280_humidity;BME280_pressure;Samples;Min_cycle;Max_cycle;Signal;HPM_P1;HPM_P2
2022/04/05 00:01:56;;;;;;;;;11.50;9.25;;;;;12.13;49.00;100989.25;5060633;28;45404;-66
2022/04/05 00:04:22;;;;;;;;;11.25;8.00;;;;;12.19;49.04;100991.72;5060396;28;45477;-66
2022/04/05 00:06:47;;;;;;;;;10.00;9.50;;;;;12.17;49.72;100987.34;5060554;28;45453;-66
2022/04/05 00:09:12;;;;;;;;;10.00;8.75;;;;;12.20;49.47;100992.59;5060756;28;46289;-66
2022/04/05 00:11:38;;;;;;;;;11.00;11.00;;;;;12.23;49.54;101000.53;5059275;28;45173;-66
2022/04/05 00:14:03;;;;;;;;;13.50;10.75;;;;;12.19;49.45;100989.03;5060059;28;45209;-66
2022/04/05 00:16:29;;;;;;;;;10.25;10.25;;;;;12.25;49.89;101001.34;5060392;28;45211;-66
2022/04/05 00:18:54;;;;;;;;;12.00;10.25;;;;;12.20;50.40;100993.47;5060354;28;47083;-66
2022/04/05 00:21:19;;;;;;;;;8.75;8.75;;;;;12.23;50.02;100996.03;5060367;28;45267;-66
2022/04/05 00:23:45;;;;;;;;;11.25;8.00;;;;;12.21;50.05;100984.53;5058562;28;45403;-66
2022/04/05 00:26:10;;;;;;;;;9.50;9.50;;;;;12.25;50.45;100992.44;5055876;28;45244;-66
2022/04/05 00:28:35;;;;;;;;;12.50;9.75;;;;;12.20;50.45;100977.41;5058573;28;47249;-66
2022/04/05 00:31:01;;;;;;;;;10.50;7.25;;;;;12.22;50.80;100993.41;5058758;28;45181;-66
2022/04/05 00:33:26;;;;;;;;;14.75;14.00;;;;;12.16;51.01;100973.09;5060478;28;45671;-66
2022/04/05 00:35:51;;;;;;;;;10.25;9.25;;;;;12.15;50.77;100983.88;5059612;28;45427;-66
2022/04/05 00:38:17;;;;;;;;;10.00;10.00;;;;;12.14;51.03;100984.78;5058694;28;47100;-66
2022/04/05 00:40:43;;;;;;;;;10.75;8.00;;;;;12.24;51.43;100996.91;5060342;28;45397;-66
2022/04/05 00:43:08;;;;;;;;;8.75;8.75;;;;;12.25;51.27;100997.81;5060481;28;45512;-66
2022/04/05 00:45:34;;;;;;;;;6.75;6.00;;;;;12.24;51.23;100999.56;5059773;28;45395;-66
2022/04/05 00:48:00;;;;;;;;;13.25;12.25;;;;;12.24;51.31;100988.88;5060041;28;45460;-66
2022/04/05 00:50:27;;;;;;;;;12.25;11.75;;;;;12.26;51.55;100986.16;5057318;28;45771;-66
2022/04/05 00:52:53;;;;;;;;;7.25;7.25;;;;;12.27;51.42;100998.59;5049795;28;45371;-66
2022/04/05 00:55:23;;;;;;;;;9.25;9.25;;;;;12.22;51.75;100980.03;5084977;27;45242;-66
2022/04/05 00:57:50;;;;;;;;;10.00;8.00;;;;;12.23;51.46;100981.78;5060069;28;45995;-66
2022/04/05 01:00:16;;;;;;;;;8.25;7.25;;;;;12.27;51.51;100988.78;5059680;28;45481;-66
2022/04/05 01:02:46;;;;;;;;;8.75;7.75;;;;;12.22;51.53;100974.69;5060341;28;45211;-66
2022/04/05 01:05:15;;;;;;;;;12.00;12.00;;;;;12.28;51.69;100985.19;5069898;28;45374;-66
2022/04/05 01:07:41;;;;;;;;;12.00;10.50;;;;;12.28;51.93;100986.97;5051847;28;45463;-66
2022/04/05 01:10:08;;;;;;;;;12.00;11.00;;;;;12.22;51.90;100975.53;5058491;28;45287;-66
2022/04/05 01:12:33;;;;;;;;;9.75;9.75;;;;;12.28;52.00;100987.84;5060122;28;45229;-66
2022/04/05 01:14:59;;;;;;;;;11.00;9.25;;;;;12.28;51.85;100979.81;5058554;28;45306;-66
2022/04/05 01:17:25;;;;;;;;;7.25;7.25;;;;;12.26;52.13;100970.94;5059474;28;47302;-66
2022/04/05 01:19:51;;;;;;;;;11.50;9.00;;;;;12.30;51.99;100975.28;5058236;28;46044;-66
2022/04/05 01:22:16;;;;;;;;;11.00;9.75;;;;;12.19;52.46;100962.25;5059935;28;45314;-66
2022/04/05 01:24:42;;;;;;;;;10.00;8.25;;;;;12.27;52.64;100970.03;5054494;28;45565;-66
2022/04/05 01:27:09;;;;;;;;;10.25;8.50;;;;;12.29;52.47;100968.16;5058473;28;47022;-66
2022/04/05 01:29:34;;;;;;;;;11.50;9.25;;;;;12.31;52.74;100963.66;5059539;28;45759;-66
2022/04/05 01:32:03;;;;;;;;;12.00;9.50;;;;;12.32;52.93;100969.88;5058417;28;45423;-66
2022/04/05 01:34:31;;;;;;;;;11.75;11.75;;;;;12.29;52.82;100964.63;5058736;28;45432;-66
2022/04/05 01:36:59;;;;;;;;;11.25;8.50;;;;;12.22;53.17;100953.28;5059400;28;45500;-66
2022/04/05 01:39:27;;;;;;;;;7.50;7.25;;;;;12.31;52.84;100970.78;5059752;28;45388;-66
2022/04/05 01:41:54;;;;;;;;;11.00;11.00;;;;;12.31;53.22;100963.66;5062758;28;45282;-66
2022/04/05 01:44:20;;;;;;;;;7.25;6.75;;;;;12.32;53.20;100956.50;5078039;28;45458;-66
2022/04/05 01:46:45;;;;;;;;;12.75;12.00;;;;;12.19;53.22;100942.66;5062556;28;46133;-66
2022/04/05 01:49:14;;;;;;;;;9.25;9.25;;;;;12.28;53.33;100949.47;5063223;28;45334;-66
2022/04/05 01:51:41;;;;;;;;;11.75;9.75;;;;;12.30;53.35;100950.31;5048697;28;45267;-66
2022/04/05 01:54:08;;;;;;;;;11.75;11.00;;;;;12.29;53.73;100945.88;5059781;28;45204;-66
2022/04/05 01:56:48;;;;;;;;;9.75;9.50;;;;;12.22;53.26;100932.72;5061334;28;47214;-66
2022/04/05 01:59:20;;;;;;;;;11.75;11.00;;;;;12.29;53.83;100937.88;5063019;28;45327;-66
2022/04/05 02:01:46;;;;;;;;;12.50;11.25;;;;;12.27;53.64;100935.25;5061283;28;45235;-66
2022/04/05 02:04:12;;;;;;;;;8.50;7.50;;;;;12.25;53.43;100928.22;5075318;28;45468;-66
2022/04/05 02:06:39;;;;;;;;;10.50;9.75;;;;;12.36;53.66;100944.72;5054421;28;47227;-66
2022/04/05 02:09:05;;;;;;;;;8.00;8.00;;;;;12.30;53.53;100932.47;5068351;28;46009;-65
2022/04/05 02:11:31;;;;;;;;;9.50;9.50;;;;;12.35;53.58;100941.19;5061417;28;45257;-65
2022/04/05 02:13:56;;;;;;;;;11.00;8.25;;;;;12.36;53.82;100947.41;5061914;28;45512;-66
2022/04/05 02:16:22;;;;;;;;;11.00;11.00;;;;;12.34;53.44;100944.78;5058733;28;46638;-66
2022/04/05 02:18:47;;;;;;;;;12.00;8.75;;;;;12.29;53.89;100933.38;5061183;28;45317;-66
2022/04/05 02:21:13;;;;;;;;;9.25;9.25;;;;;12.38;53.84;100943.75;5049636;28;45172;-66
2022/04/05 02:23:38;;;;;;;;;9.25;7.75;;;;;12.34;53.86;100938.56;5062742;28;45224;-66
2022/04/05 02:26:04;;;;;;;;;10.00;8.50;;;;;12.31;53.83;100928.88;5062050;28;47012;-66
2022/04/05 02:28:29;;;;;;;;;11.25;9.00;;;;;12.38;53.84;100941.09;5054379;28;45431;-66
2022/04/05 02:30:55;;;;;;;;;6.75;6.75;;;;;12.39;53.90;100945.47;5060785;28;45331;-66
2022/04/05 02:33:20;;;;;;;;;10.50;9.50;;;;;12.32;53.75;100933.25;5061579;28;45414;-66
2022/04/05 02:35:48;;;;;;;;;14.50;10.75;;;;;12.27;54.12;100927.22;5058424;28;45924;-66
2022/04/05 02:38:14;;;;;;;;;8.25;8.25;;;;;12.31;54.00;100934.22;5051333;28;45803;-66
2022/04/05 02:40:39;;;;;;;;;10.50;8.75;;;;;12.34;54.31;100938.56;5077752;28;45374;-66
2022/04/05 02:43:05;;;;;;;;;11.50;10.00;;;;;12.29;54.14;100924.47;5062475;28;45418;-66
2022/04/05 02:45:30;;;;;;;;;7.00;7.00;;;;;12.36;54.37;100942.06;5060927;28;45943;-66
2022/04/05 02:47:56;;;;;;;;;8.00;8.00;;;;;12.36;54.37;100940.28;5062267;28;45315;-66
2022/04/05 02:50:22;;;;;;;;;11.75;10.50;;;;;12.33;54.12;100932.34;5059820;28;45958;-66
2022/04/05 02:52:49;;;;;;;;;11.00;10.00;;;;;12.29;54.79;100921.81;5050440;28;45316;-66
2022/04/05 02:55:16;;;;;;;;;5.50;5.50;;;;;12.23;54.50;100909.53;5057819;28;47186;-66
2022/04/05 02:57:44;;;;;;;;;9.50;9.50;;;;;12.31;54.94;100920.84;5062003;28;45374;-66
2022/04/05 03:00:11;;;;;;;;;8.50;8.00;;;;;12.31;54.61;100925.28;5076959;28;45366;-66
2022/04/05 03:02:38;;;;;;;;;11.50;9.25;;;;;12.32;55.17;100929.72;5070944;28;45487;-66
2022/04/05 03:05:06;;;;;;;;;11.00;8.50;;;;;12.30;54.86;100920.88;5060873;28;46499;-66
2022/04/05 03:07:31;;;;;;;;;9.25;9.25;;;;;12.33;54.97;100926.09;5059100;28;45474;-66
2022/04/05 03:09:57;;;;;;;;;10.50;9.25;;;;;12.32;55.15;100921.69;5061747;28;45541;-66
2022/04/05 03:12:22;;;;;;;;;7.25;7.25;;;;;12.32;55.17;100922.56;5061956;28;45324;-66
2022/04/05 03:14:48;;;;;;;;;12.25;9.75;;;;;12.20;55.18;100901.59;5060402;28;46177;-66
2022/04/05 03:17:13;;;;;;;;;11.00;8.00;;;;;12.33;55.24;100913.59;5070027;28;45338;-66
2022/04/05 03:19:39;;;;;;;;;8.75;8.75;;;;;12.23;55.27;100902.38;5059509;28;45298;-66
2022/04/05 03:22:11;;;;;;;;;4.00;4.00;;;;;12.18;55.31;100904.34;5051924;28;45560;-66
2022/04/05 03:24:37;;;;;;;;;9.50;8.50;;;;;12.24;55.58;100903.22;5056966;28;45361;-66
2022/04/05 03:27:03;;;;;;;;;10.25;8.00;;;;;12.30;55.47;100913.72;5061051;28;45348;-66
2022/04/05 03:29:29;;;;;;;;;10.00;8.25;;;;;12.32;55.32;100924.38;5061524;28;45405;-66
2022/04/05 03:31:54;;;;;;;;;13.00;11.00;;;;;12.27;55.83;100907.63;5060918;28;45317;-66
2022/04/05 03:34:20;;;;;;;;;9.50;9.50;;;;;12.29;55.84;100908.41;5059680;28;45453;-66
2022/04/05 03:36:45;;;;;;;;;7.00;7.00;;;;;12.29;55.96;100908.41;5068627;28;45479;-66
2022/04/05 03:39:13;;;;;;;;;9.25;7.00;;;;;12.25;55.92;100898.78;5061244;28;45275;-66
2022/04/05 03:41:39;;;;;;;;;12.50;10.75;;;;;12.31;56.38;100909.22;5061379;28;45513;-66
2022/04/05 03:44:05;;;;;;;;;8.75;8.25;;;;;12.20;56.26;100888.22;5061055;28;46109;-66
2022/04/05 03:46:31;;;;;;;;;10.75;10.75;;;;;12.20;56.43;100886.41;5047368;28;45394;-66
2022/04/05 03:48:56;;;;;;;;;9.00;8.00;;;;;12.27;56.50;100896.91;5059536;28;45425;-66
2022/04/05 03:51:22;;;;;;;;;9.75;7.00;;;;;12.17;56.60;100882.97;5049167;28;46073;-66
2022/04/05 03:53:47;;;;;;;;;8.00;8.00;;;;;12.24;56.77;100895.19;5058107;28;46399;-66
2022/04/05 03:56:12;;;;;;;;;7.50;6.50;;;;;12.21;57.06;100890.84;5057972;28;45393;-66
2022/04/05 03:58:38;;;;;;;;;8.25;8.25;;;;;12.26;56.92;100887.13;5058398;28;45412;-66
2022/04/05 04:01:03;;;;;;;;;7.00;7.00;;;;;12.21;57.08;100877.47;5060800;28;45501;-66
2022/04/05 04:03:28;;;;;;;;;9.00;9.00;;;;;12.30;57.18;100886.09;5059881;28;45512;-66
2022/04/05 04:05:54;;;;;;;;;8.00;6.50;;;;;12.25;57.29;100880.03;5060192;28;45390;-66
2022/04/05 04:08:19;;;;;;;;;11.00;6.75;;;;;12.30;57.24;100886.09;5060589;28;45311;-66
2022/04/05 04:10:48;;;;;;;;;9.75;8.50;;;;;12.26;58.16;100884.44;5059629;28;45826;-66
2022/04/05 04:13:14;;;;;;;;;7.75;7.00;;;;;12.23;57.29;100880.97;5059957;28;46021;-66
2022/04/05 04:15:39;;;;;;;;;8.00;8.00;;;;;12.26;57.72;100889.78;5059763;28;45276;-66
2022/04/05 04:18:05;;;;;;;;;7.50;7.25;;;;;12.27;57.64;100887.06;5060602;28;45283;-65
2022/04/05 04:20:30;;;;;;;;;8.00;7.75;;;;;12.23;57.95;100885.44;5051538;28;45532;-66
2022/04/05 04:22:55;;;;;;;;;6.50;6.50;;;;;12.17;58.02;100867.78;5058211;28;45649;-66
2022/04/05 04:25:20;;;;;;;;;8.75;6.75;;;;;12.27;57.64;100887.06;5055113;28;45295;-65
2022/04/05 04:27:46;;;;;;;;;7.50;7.00;;;;;12.24;57.88;100881.81;5073867;28;45295;-66
2022/04/05 04:30:11;;;;;;;;;7.75;7.75;;;;;12.23;57.95;100878.28;5060470;28;45334;-66
2022/04/05 04:32:37;;;;;;;;;8.00;8.00;;;;;12.28;58.00;100880.78;5059301;28;45352;-66
2022/04/05 04:35:02;;;;;;;;;5.00;5.00;;;;;12.16;58.09;100868.75;5058183;28;45300;-66
2022/04/05 04:37:28;;;;;;;;;6.25;6.25;;;;;12.28;57.95;100887.94;5061729;28;45318;-66
2022/04/05 04:39:53;;;;;;;;;8.25;8.00;;;;;12.27;57.96;100881.72;5059051;28;45630;-66
2022/04/05 04:42:19;;;;;;;;;10.50;8.50;;;;;12.29;58.35;100895.03;5060109;28;46105;-66
2022/04/05 04:44:44;;;;;;;;;12.75;11.75;;;;;12.23;58.29;100872.94;5067555;28;45380;-66
2022/04/05 04:47:09;;;;;;;;;11.00;9.50;;;;;12.27;58.33;100879.03;5059966;28;45392;-66
2022/04/05 04:49:35;;;;;;;;;11.50;9.75;;;;;12.28;58.67;100880.78;5076012;28;45372;-66
2022/04/05 04:52:02;;;;;;;;;9.25;9.25;;;;;12.23;58.52;100874.75;5045110;28;47420;-66
2022/04/05 04:54:28;;;;;;;;;11.25;11.25;;;;;12.19;58.53;100867.72;5054885;28;45345;-66
2022/04/05 04:56:53;;;;;;;;;11.00;10.50;;;;;12.28;58.41;100878.13;5059522;28;45732;-65
2022/04/05 04:59:18;;;;;;;;;13.00;13.00;;;;;12.19;58.75;100863.25;5069437;28;45231;-66
2022/04/05 05:01:44;;;;;;;;;7.75;7.75;;;;;12.24;58.68;100873.78;5058033;28;48138;-66
2022/04/05 05:04:09;;;;;;;;;13.50;12.75;;;;;12.23;58.70;100880.97;5060106;28;45216;-66
2022/04/05 05:06:34;;;;;;;;;9.50;7.75;;;;;12.23;58.54;100872.06;5058793;28;45211;-66
2022/04/05 05:09:00;;;;;;;;;11.00;11.00;;;;;12.16;58.89;100859.81;5059996;28;45235;-66
2022/04/05 05:11:25;;;;;;;;;11.00;11.00;;;;;12.19;58.93;100871.28;5058452;28;46023;-66
2022/04/05 05:13:50;;;;;;;;;12.00;9.50;;;;;12.21;58.99;100872.13;5055128;28;45247;-66
2022/04/05 05:16:16;;;;;;;;;13.00;10.50;;;;;12.15;59.03;100858.97;5087707;27;45417;-66
2022/04/05 05:18:42;;;;;;;;;12.25;12.25;;;;;12.22;59.48;100873.84;5059592;28;45660;-66
2022/04/05 05:21:07;;;;;;;;;14.00;12.25;;;;;12.22;59.26;100878.34;5047462;28;45847;-74
2022/04/05 05:23:33;;;;;;;;;10.25;10.00;;;;;12.22;58.97;100870.31;5067645;28;45392;-65
2022/04/05 05:25:58;;;;;;;;;11.50;11.00;;;;;12.22;59.65;100878.34;5052055;28;45478;-65
2022/04/05 05:28:23;;;;;;;;;11.75;11.00;;;;;12.22;59.01;100881.88;5058536;28;45394;-65
2022/04/05 05:30:49;;;;;;;;;14.50;12.25;;;;;12.23;59.50;100874.75;5059021;28;45748;-65
2022/04/05 05:33:14;;;;;;;;;15.50;14.00;;;;;12.25;59.57;100883.56;5059608;28;45374;-65
2022/04/05 05:35:47;;;;;;;;;10.75;10.75;;;;;12.22;59.33;100881.88;5073685;28;45359;-66
2022/04/05 05:38:13;;;;;;;;;15.00;11.25;;;;;12.23;59.78;100882.78;5071517;28;45409;-65
2022/04/05 05:40:38;;;;;;;;;12.00;12.00;;;;;12.22;59.93;100878.34;5055676;28;47293;-65
2022/04/05 05:43:04;;;;;;;;;13.50;12.75;;;;;12.23;59.81;100878.28;5055938;28;45473;-65
2022/04/05 05:45:33;;;;;;;;;19.25;14.25;;;;;12.11;59.75;100861.78;5054948;28;45328;-65
2022/04/05 05:47:59;;;;;;;;;6.75;6.75;;;;;12.23;59.79;100882.78;5057102;28;45337;-65
2022/04/05 05:50:26;;;;;;;;;12.75;12.00;;;;;12.17;60.12;100870.47;5054591;28;45279;-65
2022/04/05 05:52:52;;;;;;;;;13.25;13.25;;;;;12.11;60.00;100862.69;5059543;28;45453;-65
2022/04/05 05:55:20;;;;;;;;;13.25;12.50;;;;;12.25;60.04;100880.91;5054687;28;45339;-65
2022/04/05 05:57:46;;;;;;;;;11.75;11.50;;;;;12.21;59.99;100873.91;5059435;28;45454;-65
2022/04/05 06:00:17;;;;;;;;;11.50;11.00;;;;;12.27;59.96;100879.03;5058644;28;46302;-65
2022/04/05 06:02:44;;;;;;;;;12.50;11.00;;;;;12.27;60.19;100891.56;5056388;28;45811;-65
2022/04/05 06:05:10;;;;;;;;;13.50;13.25;;;;;12.22;60.11;100883.69;5051157;28;45343;-65
2022/04/05 06:07:36;;;;;;;;;12.00;12.00;;;;;12.26;60.18;100885.31;5057778;28;45338;-65
2022/04/05 06:10:03;;;;;;;;;11.00;11.00;;;;;12.25;60.30;100885.38;5058199;28;45425;-65
2022/04/05 06:12:29;;;;;;;;;11.00;11.00;;;;;12.18;60.63;100882.06;5058580;28;45337;-65
2022/04/05 06:14:54;;;;;;;;;9.25;9.25;;;;;12.24;60.36;100892.53;5057545;28;45252;-65
2022/04/05 06:17:19;;;;;;;;;11.75;10.75;;;;;12.05;60.54;100860.22;5055480;28;45776;-65
2022/04/05 06:19:46;;;;;;;;;13.75;11.25;;;;;12.17;60.42;100886.53;5057711;28;45697;-65
2022/04/05 06:22:12;;;;;;;;;9.00;9.00;;;;;12.29;60.71;100905.75;5057024;28;45501;-65
2022/04/05 06:24:38;;;;;;;;;9.75;9.75;;;;;12.25;60.82;100901.44;5059161;28;45396;-65
2022/04/05 06:27:04;;;;;;;;;9.25;7.50;;;;;12.22;60.54;100903.28;5059154;28;45247;-65
2022/04/05 06:29:29;;;;;;;;;5.00;5.00;;;;;12.29;61.01;100913.78;5062278;28;46277;-64
2022/04/05 06:31:57;;;;;;;;;10.75;10.75;;;;;12.22;60.76;100905.97;5075939;28;45421;-65
2022/04/05 06:34:24;;;;;;;;;13.00;10.75;;;;;12.30;61.03;100921.75;5062115;28;45492;-65
2022/04/05 06:36:49;;;;;;;;;14.00;10.25;;;;;12.26;61.00;100911.19;5062034;28;45435;-66
2022/04/05 06:39:15;;;;;;;;;10.50;10.00;;;;;12.30;61.19;100916.41;5070065;28;46391;-65
2022/04/05 06:41:40;;;;;;;;;9.00;9.00;;;;;12.26;61.07;100913.88;5062125;28;45259;-65
2022/04/05 06:44:06;;;;;;;;;9.25;8.75;;;;;12.28;61.28;100922.72;5062400;28;45292;-65
2022/04/05 06:46:31;;;;;;;;;8.75;8.75;;;;;12.29;61.64;100924.47;5061667;28;45161;-65
2022/04/05 06:48:57;;;;;;;;;13.50;12.00;;;;;12.25;61.70;100925.53;5058709;28;45468;-65
2022/04/05 06:51:24;;;;;;;;;8.00;8.00;;;;;12.14;61.58;100902.69;5058941;28;45411;-65
2022/04/05 06:53:50;;;;;;;;;8.50;8.00;;;;;12.26;61.38;100917.41;5046777;28;45382;-65
2022/04/05 06:56:15;;;;;;;;;10.75;10.75;;;;;12.26;61.48;100917.41;5056708;28;46022;-65
2022/04/05 06:58:40;;;;;;;;;8.25;8.25;;;;;12.27;61.79;100915.63;5053373;28;48426;-66
2022/04/05 07:01:06;;;;;;;;;9.25;9.25;;;;;12.32;61.84;100917.22;5077135;28;45472;-65
2022/04/05 07:03:31;;;;;;;;;10.00;9.00;;;;;12.29;62.13;100917.31;5057413;28;45442;-66
2022/04/05 07:05:58;;;;;;;;;11.00;9.50;;;;;12.33;62.11;100918.06;5047098;28;45426;-66
2022/04/05 07:08:23;;;;;;;;;11.50;10.50;;;;;12.23;62.26;100907.72;5061595;28;45390;-65
2022/04/05 07:10:50;;;;;;;;;7.50;7.25;;;;;12.32;62.42;100916.34;5061596;28;45220;-65
2022/04/05 07:13:15;;;;;;;;;9.00;9.00;;;;;12.27;61.99;100904.94;5059819;28;45158;-66
2022/04/05 07:15:41;;;;;;;;;10.00;8.50;;;;;12.32;62.49;100906.50;5049587;28;45441;-66
2022/04/05 07:18:06;;;;;;;;;18.00;16.50;;;;;12.31;62.20;100909.22;5046394;28;45624;-66
2022/04/05 07:20:34;;;;;;;;;10.50;8.50;;;;;12.30;62.41;100908.38;5073677;28;45343;-66
2022/04/05 07:22:59;;;;;;;;;9.25;9.25;;;;;12.27;62.44;100897.75;5056344;28;45449;-66
2022/04/05 07:25:26;;;;;;;;;11.75;10.50;;;;;12.36;62.64;100907.25;5068877;28;45628;-66
2022/04/05 07:27:52;;;;;;;;;7.75;7.75;;;;;12.32;62.83;100898.47;5060513;28;45320;-66
2022/04/05 07:30:18;;;;;;;;;9.25;9.25;;;;;12.26;62.79;100882.63;5060176;28;45519;-66
2022/04/05 07:32:45;;;;;;;;;7.75;7.75;;;;;12.30;63.04;100894.97;5059559;28;45302;-66
2022/04/05 07:35:13;;;;;;;;;10.50;10.50;;;;;12.31;62.81;100894.06;5060384;28;45343;-66
2022/04/05 07:37:39;;;;;;;;;11.75;8.00;;;;;12.39;63.10;100905.31;5059842;28;46918;-66
2022/04/05 07:40:08;;;;;;;;;11.25;9.75;;;;;12.37;62.47;100907.19;5059019;28;45537;-66
2022/04/05 07:42:34;;;;;;;;;9.50;9.00;;;;;12.35;62.93;100905.53;5075667;28;45546;-66
2022/04/05 07:45:00;;;;;;;;;8.75;8.75;;;;;12.37;63.12;100912.56;5058939;28;45400;-66
2022/04/05 07:47:25;;;;;;;;;8.25;7.00;;;;;12.40;62.99;100911.56;5067023;28;48197;-66
2022/04/05 07:49:50;;;;;;;;;10.25;10.25;;;;;12.41;63.42;100915.97;5057102;28;45394;-66
2022/04/05 07:52:16;;;;;;;;;10.00;10.00;;;;;12.33;63.30;100904.69;5050722;28;45515;-66
2022/04/05 07:54:42;;;;;;;;;10.25;10.25;;;;;12.38;63.11;100906.28;5065837;28;45266;-66
2022/04/05 07:57:09;;;;;;;;;14.75;12.50;;;;;12.44;63.45;100913.19;5076263;28;48363;-66
2022/04/05 07:59:36;;;;;;;;;15.00;12.00;;;;;12.40;63.50;100903.53;5060393;28;45277;-66
2022/04/05 08:02:01;;;;;;;;;9.75;9.75;;;;;12.39;63.34;100902.66;5060575;28;45393;-66
2022/04/05 08:04:27;;;;;;;;;9.75;9.75;;;;;12.48;63.45;100919.31;5084349;27;45370;-66
2022/04/05 08:06:52;;;;;;;;;10.75;9.50;;;;;12.46;63.38;100914.00;5055789;28;45621;-66
2022/04/05 08:09:17;;;;;;;;;14.00;12.00;;;;;12.44;63.57;100917.69;5052197;28;45244;-66
2022/04/05 08:11:43;;;;;;;;;14.75;12.50;;;;;12.42;63.67;100907.91;5060593;28;45475;-65
2022/04/05 08:14:08;;;;;;;;;14.50;12.00;;;;;12.41;63.56;100902.59;5059448;28;45299;-66
2022/04/05 08:16:33;;;;;;;;;10.75;10.25;;;;;12.50;63.60;100915.66;5058746;28;48011;-66
2022/04/05 08:18:59;;;;;;;;;13.25;13.00;;;;;12.42;63.95;100902.53;5060491;28;45149;-66
2022/04/05 08:21:25;;;;;;;;;8.25;8.25;;;;;12.50;63.82;100921.00;5063427;28;45315;-66
2022/04/05 08:23:52;;;;;;;;;14.25;10.50;;;;;12.54;63.56;100921.75;5060592;28;45243;-66
2022/04/05 08:26:18;;;;;;;;;12.50;11.75;;;;;12.49;63.87;100919.25;5058471;28;46194;-66
2022/04/05 08:28:43;;;;;;;;;12.00;12.00;;;;;12.57;63.79;100930.53;5060370;28;45377;-66
2022/04/05 08:31:08;;;;;;;;;10.75;10.50;;;;;12.51;64.06;100925.44;5058884;28;45641;-66
2022/04/05 08:33:34;;;;;;;;;13.75;13.75;;;;;12.62;64.15;100932.19;5049578;28;45294;-66
2022/04/05 08:36:00;;;;;;;;;10.75;10.75;;;;;12.58;63.93;100924.28;5057292;28;47570;-66
2022/04/05 08:38:26;;;;;;;;;10.50;9.50;;;;;12.63;64.19;100928.56;5049289;28;45347;-66
2022/04/05 08:40:53;;;;;;;;;14.00;11.50;;;;;12.65;63.93;100930.28;5072505;28;45532;-66
2022/04/05 08:43:18;;;;;;;;;13.50;13.25;;;;;12.65;64.45;100924.06;5052539;28;45189;-66
2022/04/05 08:45:50;;;;;;;;;13.50;13.25;;;;;12.67;63.94;100924.84;5059613;28;45933;-66
2022/04/05 08:48:17;;;;;;;;;14.25;13.00;;;;;12.66;64.15;100923.97;5055580;28;45477;-66
2022/04/05 08:50:42;;;;;;;;;14.25;13.25;;;;;12.67;64.47;100915.00;5052977;28;45339;-66
2022/04/05 08:53:08;;;;;;;;;6.00;6.00;;;;;12.60;64.31;100917.06;5051480;28;45343;-66
2022/04/05 08:55:35;;;;;;;;;11.00;10.25;;;;;12.67;64.42;100925.72;5054618;28;46460;-66
2022/04/05 08:58:01;;;;;;;;;13.00;11.50;;;;;12.65;64.23;100913.34;5059962;28;45260;-66
2022/04/05 09:00:26;;;;;;;;;19.50;19.00;;;;;12.75;64.11;100925.44;5059514;28;45325;-66
2022/04/05 09:03:09;;;;;;;;;17.75;16.50;;;;;12.76;64.10;100928.06;5059465;28;45662;-66
2022/04/05 09:05:42;;;;;;;;;8.50;7.75;;;;;12.71;64.03;100913.09;5059446;28;46053;-66
2022/04/05 09:08:16;;;;;;;;;14.25;12.00;;;;;12.79;64.33;100921.69;5059453;28;45309;-66
2022/04/05 09:10:47;;;;;;;;;11.50;9.50;;;;;12.79;64.25;100924.38;5059869;28;45380;-66
2022/04/05 09:13:15;;;;;;;;;9.50;8.50;;;;;12.76;63.97;100913.78;5059537;28;45367;-66
2022/04/05 09:15:42;;;;;;;;;11.75;11.50;;;;;12.77;63.94;100910.19;5058345;28;47396;-66
2022/04/05 09:18:07;;;;;;;;;12.00;12.00;;;;;12.83;64.23;100920.66;5059163;28;46396;-66
2022/04/05 09:20:44;;;;;;;;;9.25;8.50;;;;;12.85;63.82;100916.09;5052893;28;45277;-66
2022/04/05 09:23:25;;;;;;;;;11.50;11.00;;;;;12.87;63.76;100916.91;5058015;28;45512;-66
2022/04/05 09:26:05;;;;;;;;;11.25;9.50;;;;;12.90;63.95;100918.63;5079314;27;47275;-66
2022/04/05 09:28:37;;;;;;;;;15.00;13.00;;;;;12.90;64.08;100921.28;5059514;28;45321;-66
2022/04/05 09:31:06;;;;;;;;;13.00;12.75;;;;;12.89;64.19;100919.53;5058928;28;45445;-66
2022/04/05 09:33:35;;;;;;;;;14.00;11.50;;;;;12.90;63.86;100915.94;5053547;28;45434;-66
2022/04/05 09:36:07;;;;;;;;;13.75;10.25;;;;;12.88;64.05;100917.78;5058332;28;46366;-66
2022/04/05 09:38:33;;;;;;;;;8.00;8.00;;;;;12.89;64.72;100927.56;5057909;28;45788;-66
2022/04/05 09:41:12;;;;;;;;;12.00;9.00;;;;;12.96;64.36;100938.00;5059477;28;45367;-66
2022/04/05 09:43:49;;;;;;;;;14.00;12.00;;;;;12.98;64.16;100929.91;5057872;28;45531;-66
2022/04/05 09:46:15;;;;;;;;;10.50;10.50;;;;;12.97;64.81;100925.47;5058853;28;46274;-66
2022/04/05 09:48:40;;;;;;;;;9.00;9.00;;;;;12.97;64.67;100930.81;5057883;28;45641;-66
2022/04/05 09:51:09;;;;;;;;;11.75;11.75;;;;;13.01;64.69;100936.94;5056887;28;45331;-66
2022/04/05 09:53:34;;;;;;;;;12.75;12.75;;;;;13.01;64.82;100927.06;5052174;28;45312;-66
2022/04/05 09:56:21;;;;;;;;;16.33;13.33;;;;;13.03;64.93;100929.69;5051918;28;45453;-66
2022/04/05 09:58:53;;;;;;;;;13.75;10.50;;;;;13.06;65.27;100924.22;5058793;28;45429;-66
2022/04/05 10:01:21;;;;;;;;;15.75;12.75;;;;;13.08;65.09;100919.66;5057665;28;45714;-66
2022/04/05 10:04:09;;;;;;;;;11.50;10.50;;;;;13.08;65.10;100917.88;5062674;28;45326;-66
2022/04/05 10:06:38;;;;;;;;;15.25;14.25;;;;;13.10;65.64;100916.00;5059128;28;47110;-66
2022/04/05 10:09:04;;;;;;;;;9.75;9.75;;;;;13.07;65.18;100913.44;5060945;28;45691;-66
2022/04/05 10:11:32;;;;;;;;;13.50;12.50;;;;;13.13;65.43;100920.34;5062427;28;45435;-66
2022/04/05 10:13:59;;;;;;;;;12.00;11.50;;;;;13.10;65.17;100909.78;5062157;28;45206;-66
2022/04/05 10:16:27;;;;;;;;;13.25;11.25;;;;;13.19;65.06;100925.47;5067102;28;48434;-66
2022/04/05 10:18:57;;;;;;;;;10.75;10.50;;;;;13.15;65.46;100921.19;5062238;28;45533;-66
2022/04/05 10:21:25;;;;;;;;;14.25;13.00;;;;;13.22;65.45;100924.50;5061976;28;45251;-66
2022/04/05 10:23:53;;;;;;;;;12.25;12.25;;;;;13.17;65.41;100911.28;5062425;28;45298;-66
2022/04/05 10:26:24;;;;;;;;;12.75;9.75;;;;;13.16;65.41;100915.78;5061324;28;46580;-66
2022/04/05 10:28:51;;;;;;;;;10.00;10.00;;;;;13.18;65.92;100918.38;5070408;28;45425;-66
2022/04/05 10:31:24;;;;;;;;;9.00;9.00;;;;;13.23;65.31;100918.19;5059820;28;45295;-66
2022/04/05 10:34:04;;;;;;;;;11.50;9.50;;;;;13.26;65.25;100921.59;5061323;28;45406;-66
2022/04/05 10:36:31;;;;;;;;;13.00;10.25;;;;;13.06;65.62;100887.56;5060775;28;46176;-66
2022/04/05 10:39:16;;;;;;;;;15.50;14.75;;;;;13.27;65.79;100915.31;5061765;28;45286;-66
2022/04/05 10:41:43;;;;;;;;;10.25;10.00;;;;;13.28;65.23;100913.50;5060689;28;45343;-66
2022/04/05 10:44:22;;;;;;;;;15.00;12.50;;;;;13.34;65.33;100919.53;5061981;28;45435;-66
2022/04/05 10:46:57;;;;;;;;;15.50;12.75;;;;;13.37;65.40;100925.72;5053743;28;47650;-65
2022/04/05 10:49:47;;;;;;;;;8.25;8.00;;;;;13.37;65.45;100925.72;5061129;28;45690;-66
2022/04/05 10:52:31;;;;;;;;;12.00;10.50;;;;;13.39;65.11;100926.53;5048420;28;45316;-66
2022/04/05 10:55:04;;;;;;;;;8.00;7.75;;;;;13.42;64.88;100929.06;5061533;28;45528;-66
2022/04/05 10:57:35;;;;;;;;;13.25;12.00;;;;;13.38;65.73;100914.03;5041566;28;45457;-70
2022/04/05 11:00:05;;;;;;;;;11.00;9.25;;;;;13.43;65.29;100912.03;5049154;28;45515;-68
2022/04/05 11:02:36;;;;;;;;;7.25;6.75;;;;;13.41;65.65;100906.72;5062035;28;45331;-66
2022/04/05 11:05:27;;;;;;;;;9.25;7.75;;;;;13.47;65.26;100902.94;5061680;28;45350;-66
2022/04/05 11:07:58;;;;;;;;;10.00;8.25;;;;;13.49;64.99;100901.06;5057185;28;46527;-66
2022/04/05 11:10:36;;;;;;;;;10.00;8.00;;;;;13.49;65.04;100901.06;5050849;28;45440;-66
2022/04/05 11:13:09;;;;;;;;;8.50;8.50;;;;;13.54;65.15;100904.41;5059995;28;45329;-66
2022/04/05 11:15:42;;;;;;;;;13.25;9.00;;;;;13.55;65.49;100911.53;5048967;28;45300;-66
2022/04/05 11:18:09;;;;;;;;;6.00;6.00;;;;;13.53;65.73;100905.34;5059699;28;46312;-66